createdAt,value
2023-03-27T00:02:23.750Z,21.82
2023-03-27T00:04:51.108Z,21.77
2023-03-27T00:07:20.356Z,21.72
2023-03-27T00:09:47.501Z,21.68
2023-03-27T00:12:14.556Z,21.64
2023-03-27T00:14:41.908Z,21.65
2023-03-27T00:17:09.810Z,21.58
2023-03-27T00:19:37.185Z,21.55
2023-03-27T00:22:04.277Z,21.55
2023-03-27T00:24:31.700Z,21.53
2023-03-27T00:26:58.920Z,21.51
2023-03-27T00:29:26.297Z,21.53
2023-03-27T00:31:53.492Z,21.50
2023-03-27T00:34:20.853Z,21.47
2023-03-27T00:36:51.533Z,21.48
2023-03-27T00:39:19.655Z,21.44
2023-03-27T00:41:47.780Z,21.44
2023-03-27T00:44:24.371Z,21.41
2023-03-27T00:46:52.715Z,21.41
2023-03-27T00:49:20.383Z,21.39
2023-03-27T00:51:48.680Z,21.33
2023-03-27T00:54:18.293Z,21.35
2023-03-27T00:56:46.363Z,21.37
2023-03-27T00:59:16.974Z,21.30
2023-03-27T01:01:45.407Z,21.28
2023-03-27T01:04:12.844Z,21.25
2023-03-27T01:06:42.476Z,21.24
2023-03-27T01:09:09.992Z,21.23
2023-03-27T01:11:40.203Z,21.17
2023-03-27T01:14:10.237Z,21.15
2023-03-27T01:16:37.647Z,21.18
2023-03-27T01:19:17.982Z,21.13
2023-03-27T01:21:48.306Z,21.09
2023-03-27T01:24:18.457Z,21.08
2023-03-27T01:26:49.175Z,21.05
2023-03-27T01:29:23.054Z,21.04
2023-03-27T01:31:53.398Z,21.01
2023-03-27T01:34:23.595Z,20.98
2023-03-27T01:36:52.386Z,20.97
2023-03-27T01:39:19.857Z,20.95
2023-03-27T01:41:47.416Z,20.95
2023-03-27T01:44:14.982Z,20.93
2023-03-27T01:46:47.364Z,20.88
2023-03-27T01:49:17.629Z,20.84
2023-03-27T01:51:49.177Z,20.81
2023-03-27T01:54:22.402Z,20.84
2023-03-27T01:56:54.284Z,20.81
2023-03-27T01:59:24.755Z,20.75
2023-03-27T02:01:55.081Z,20.77
2023-03-27T02:04:24.615Z,20.74
2023-03-27T02:06:55.245Z,20.73
2023-03-27T02:09:26.933Z,20.71
2023-03-27T02:11:57.442Z,20.69
2023-03-27T02:14:29.164Z,20.66
2023-03-27T02:16:58.934Z,20.65
2023-03-27T02:19:30.773Z,20.64
2023-03-27T02:21:58.194Z,20.62
2023-03-27T02:24:25.641Z,20.58
2023-03-27T02:26:57.794Z,20.59
2023-03-27T02:29:28.050Z,20.54
2023-03-27T02:31:58.278Z,20.56
2023-03-27T02:34:29.651Z,20.50
2023-03-27T02:37:02.614Z,20.48
2023-03-27T02:39:34.317Z,20.49
2023-03-27T02:42:05.031Z,20.42
2023-03-27T02:44:46.910Z,20.42
2023-03-27T02:47:18.931Z,20.39
2023-03-27T02:49:50.451Z,20.37
2023-03-27T02:52:20.801Z,20.37
2023-03-27T02:54:53.822Z,20.34
2023-03-27T02:57:25.274Z,20.32
2023-03-27T02:59:55.897Z,20.30
2023-03-27T03:02:27.728Z,20.31
2023-03-27T03:04:57.639Z,20.25
2023-03-27T03:07:27.041Z,20.24
2023-03-27T03:09:54.623Z,20.21
2023-03-27T03:12:22.068Z,20.20
2023-03-27T03:14:49.339Z,20.20
2023-03-27T03:17:17.034Z,20.19
2023-03-27T03:19:44.187Z,20.16
2023-03-27T03:22:11.741Z,20.15
2023-03-27T03:24:42.522Z,20.14
2023-03-27T03:27:09.719Z,20.11
2023-03-27T03:29:37.913Z,20.11
2023-03-27T03:32:06.205Z,20.10
2023-03-27T03:34:34.560Z,20.06
2023-03-27T03:37:01.843Z,20.06
2023-03-27T03:39:29.097Z,20.04
2023-03-27T03:41:56.432Z,20.05
2023-03-27T03:44:23.562Z,20.06
2023-03-27T03:46:50.792Z,20.01
2023-03-27T03:49:17.957Z,20.00
2023-03-27T03:51:45.193Z,19.98
2023-03-27T03:54:12.479Z,19.99
2023-03-27T03:56:41.896Z,19.94
2023-03-27T03:59:09.599Z,19.91
2023-03-27T04:01:36.881Z,19.95
2023-03-27T04:04:04.539Z,19.93
2023-03-27T04:06:33.068Z,19.92
2023-03-27T04:09:00.162Z,19.91
2023-03-27T04:11:27.234Z,19.87
2023-03-27T04:13:54.378Z,19.89
2023-03-27T04:16:21.842Z,19.83
2023-03-27T04:18:51.011Z,19.84
2023-03-27T04:21:18.452Z,19.84
2023-03-27T04:23:46.198Z,19.84
2023-03-27T04:26:13.490Z,19.81
2023-03-27T04:28:41.018Z,19.77
2023-03-27T04:31:11.030Z,19.75
2023-03-27T04:33:39.862Z,19.77
2023-03-27T04:36:08.273Z,19.73
2023-03-27T04:38:37.350Z,19.74
2023-03-27T04:41:05.366Z,19.72
2023-03-27T04:43:32.607Z,19.70
2023-03-27T04:45:59.682Z,19.67
2023-03-27T04:48:27.026Z,19.67
2023-03-27T04:50:54.475Z,19.66
2023-03-27T04:53:21.808Z,19.67
2023-03-27T04:55:51.637Z,19.74
2023-03-27T04:58:19.218Z,19.79
2023-03-27T05:00:50.920Z,19.84
2023-03-27T05:03:19.511Z,19.89
2023-03-27T05:05:48.179Z,19.93
2023-03-27T05:08:15.531Z,19.99
2023-03-27T05:10:42.807Z,20.03
2023-03-27T05:13:11.152Z,20.07
2023-03-27T05:15:39.446Z,20.10
2023-03-27T05:18:07.675Z,20.12
2023-03-27T05:20:35.424Z,20.19
2023-03-27T05:23:02.629Z,20.23
2023-03-27T05:25:30.359Z,20.28
2023-03-27T05:27:57.601Z,20.32
2023-03-27T05:30:25.314Z,20.37
2023-03-27T05:32:53.995Z,20.42
2023-03-27T05:35:22.840Z,20.48
2023-03-27T05:37:50.867Z,20.52
2023-03-27T05:40:22.293Z,20.56
2023-03-27T05:42:50.936Z,20.62
2023-03-27T05:45:18.413Z,20.67
2023-03-27T05:47:46.012Z,20.71
2023-03-27T05:50:13.482Z,20.74
2023-03-27T05:52:40.992Z,20.79
2023-03-27T05:55:08.683Z,20.82
2023-03-27T05:57:39.215Z,20.85
2023-03-27T06:00:10.886Z,20.89
2023-03-27T06:02:39.551Z,20.91
2023-03-27T06:05:07.938Z,20.94
2023-03-27T06:07:35.202Z,20.96
2023-03-27T06:10:03.527Z,20.99
2023-03-27T06:12:30.788Z,21.01
2023-03-27T06:14:57.994Z,21.03
2023-03-27T06:17:25.345Z,21.05
2023-03-27T06:19:52.426Z,21.08
2023-03-27T06:22:19.575Z,21.09
2023-03-27T06:24:46.928Z,21.13
2023-03-27T06:27:14.121Z,21.13
2023-03-27T06:29:42.113Z,21.12
2023-03-27T06:32:09.319Z,21.12
2023-03-27T06:34:36.438Z,21.10
2023-03-27T06:37:04.016Z,21.07
2023-03-27T06:39:31.719Z,21.06
2023-03-27T06:41:59.101Z,20.98
2023-03-27T06:44:26.307Z,20.85
2023-03-27T06:46:53.970Z,20.92
2023-03-27T06:49:21.815Z,20.99
2023-03-27T06:51:48.912Z,21.03
2023-03-27T06:54:16.039Z,21.06
2023-03-27T06:56:44.709Z,21.08
2023-03-27T06:59:12.567Z,21.13
2023-03-27T07:01:39.722Z,21.14
2023-03-27T07:04:07.470Z,21.16
2023-03-27T07:06:34.741Z,21.21
2023-03-27T07:09:01.760Z,21.23
2023-03-27T07:11:31.332Z,21.26
2023-03-27T07:13:59.368Z,21.31
2023-03-27T07:16:27.042Z,21.32
2023-03-27T07:18:54.437Z,21.36
2023-03-27T07:21:21.645Z,21.39
2023-03-27T07:23:48.836Z,21.41
2023-03-27T07:26:19.125Z,21.45
2023-03-27T07:28:46.585Z,21.48
2023-03-27T07:31:31.560Z,21.52
2023-03-27T07:34:02.284Z,21.55
2023-03-27T07:36:29.591Z,21.58
2023-03-27T07:38:57.296Z,21.61
2023-03-27T07:41:24.655Z,21.63
2023-03-27T07:43:52.046Z,21.65
2023-03-27T07:46:19.725Z,21.68
2023-03-27T07:48:46.988Z,21.69
2023-03-27T07:51:14.539Z,21.73
2023-03-27T07:53:42.135Z,21.75
2023-03-27T07:56:16.805Z,21.77
2023-03-27T07:58:44.032Z,21.78
2023-03-27T08:01:12.136Z,21.78
2023-03-27T08:03:39.702Z,21.79
2023-03-27T08:06:07.953Z,21.82
2023-03-27T08:08:40.372Z,21.81
2023-03-27T08:11:13.625Z,21.82
2023-03-27T08:13:50.782Z,21.82
2023-03-27T08:16:18.755Z,21.82
2023-03-27T08:18:48.027Z,21.82
2023-03-27T08:21:15.422Z,21.82
2023-03-27T08:23:43.179Z,21.81
2023-03-27T08:26:17.536Z,21.82
2023-03-27T08:28:44.748Z,21.82
2023-03-27T08:31:14.272Z,21.80
2023-03-27T08:33:42.535Z,21.79
2023-03-27T08:36:11.602Z,21.81
2023-03-27T08:38:40.053Z,21.79
2023-03-27T08:41:07.281Z,21.77
2023-03-27T08:43:36.872Z,21.78
2023-03-27T08:46:17.483Z,21.77
2023-03-27T08:48:48.712Z,21.75
2023-03-27T08:51:20.500Z,21.74
2023-03-27T08:53:51.158Z,21.72
2023-03-27T08:56:26.324Z,21.71
2023-03-27T08:58:54.202Z,21.68
2023-03-27T09:01:26.862Z,21.68
2023-03-27T09:03:57.322Z,21.66
2023-03-27T09:06:40.585Z,21.65
2023-03-27T09:09:12.060Z,21.60
2023-03-27T09:11:46.496Z,21.60
2023-03-27T09:14:21.023Z,21.58
2023-03-27T09:17:05.598Z,21.56
2023-03-27T09:19:36.025Z,21.55
2023-03-27T09:22:06.306Z,21.57
2023-03-27T09:24:36.938Z,21.57
2023-03-27T09:27:14.856Z,21.60
2023-03-27T09:29:42.304Z,21.61
2023-03-27T09:32:12.587Z,21.63
2023-03-27T09:34:39.800Z,21.67
2023-03-27T09:37:12.386Z,21.70
2023-03-27T09:39:42.717Z,21.72
2023-03-27T09:42:17.541Z,21.74
2023-03-27T09:44:46.139Z,21.81
2023-03-27T09:47:18.624Z,21.83
2023-03-27T09:49:50.692Z,21.87
2023-03-27T09:52:21.232Z,21.89
2023-03-27T09:54:51.632Z,21.94
2023-03-27T09:57:19.206Z,21.96
2023-03-27T09:59:49.553Z,22.00
2023-03-27T10:02:18.329Z,22.04
2023-03-27T10:04:54.307Z,22.06
2023-03-27T10:07:23.967Z,22.08
2023-03-27T10:09:54.288Z,22.11
2023-03-27T10:12:21.836Z,22.14
2023-03-27T10:14:52.899Z,22.14
2023-03-27T10:17:23.298Z,22.14
2023-03-27T10:19:53.499Z,22.13
2023-03-27T10:22:27.590Z,22.15
2023-03-27T10:24:59.392Z,22.18
2023-03-27T10:27:29.970Z,22.17
2023-03-27T10:29:58.350Z,22.18
2023-03-27T10:32:43.620Z,22.18
2023-03-27T10:35:19.152Z,22.20
2023-03-27T10:37:50.064Z,22.21
2023-03-27T10:40:19.304Z,22.21
2023-03-27T10:42:47.665Z,22.17
2023-03-27T10:45:17.326Z,22.18
2023-03-27T10:47:48.101Z,22.20
2023-03-27T10:50:16.817Z,22.22
2023-03-27T10:52:51.907Z,22.20
2023-03-27T10:55:20.381Z,22.21
2023-03-27T10:57:50.109Z,22.22
2023-03-27T11:00:23.111Z,22.25
2023-03-27T11:02:57.971Z,22.25
2023-03-27T11:05:29.245Z,22.25
2023-03-27T11:08:03.407Z,22.25
2023-03-27T11:10:33.615Z,22.26
2023-03-27T11:13:04.699Z,22.22
2023-03-27T11:15:37.332Z,22.24
2023-03-27T11:18:07.577Z,22.24
2023-03-27T11:20:37.780Z,22.17
2023-03-27T11:23:08.056Z,22.14
2023-03-27T11:25:40.154Z,22.15
2023-03-27T11:28:16.696Z,22.17
2023-03-27T11:30:48.606Z,22.14
2023-03-27T11:33:18.884Z,22.14
2023-03-27T11:35:51.003Z,22.10
2023-03-27T11:38:19.970Z,22.07
2023-03-27T11:40:48.417Z,21.99
2023-03-27T11:43:17.191Z,22.03
2023-03-27T11:45:55.213Z,22.03
2023-03-27T11:48:25.340Z,22.00
2023-03-27T11:50:54.106Z,22.07
2023-03-27T11:53:21.695Z,22.10
2023-03-27T11:55:51.911Z,22.13
2023-03-27T11:58:22.324Z,22.15
2023-03-27T12:03:18.065Z,22.17
2023-03-27T12:05:48.757Z,22.16
2023-03-27T12:08:19.821Z,22.16
2023-03-27T12:10:48.253Z,22.13
2023-03-27T12:13:17.064Z,22.12
2023-03-27T12:15:47.152Z,22.14
2023-03-27T12:18:17.238Z,22.16
2023-03-27T12:20:52.874Z,22.13
2023-03-27T12:23:23.816Z,22.13
2023-03-27T12:25:58.828Z,22.08
2023-03-27T12:28:29.102Z,22.06
2023-03-27T12:31:01.173Z,22.04
2023-03-27T12:33:29.477Z,22.04
2023-03-27T12:35:58.373Z,22.04
2023-03-27T12:38:30.516Z,22.06
2023-03-27T12:41:06.667Z,22.05
2023-03-27T12:43:39.897Z,22.09
2023-03-27T12:46:20.622Z,22.11
2023-03-27T12:48:50.677Z,22.15
2023-03-27T12:51:20.739Z,22.15
2023-03-27T12:53:49.195Z,22.16
2023-03-27T12:56:27.694Z,22.20
2023-03-27T12:58:55.608Z,22.25
2023-03-27T13:01:52.349Z,22.27
2023-03-27T13:04:38.339Z,22.30
2023-03-27T13:07:05.522Z,22.35
2023-03-27T13:09:35.303Z,22.37
2023-03-27T13:12:14.156Z,22.39
2023-03-27T13:14:49.925Z,22.42
2023-03-27T13:17:22.947Z,22.46
2023-03-27T13:19:49.722Z,22.46
2023-03-27T13:22:36.908Z,22.45
2023-03-27T13:25:04.708Z,22.45
2023-03-27T13:28:09.022Z,22.47
2023-03-27T13:30:53.051Z,22.50
2023-03-27T13:33:51.663Z,22.50
2023-03-27T13:36:25.083Z,22.49
2023-03-27T13:38:55.337Z,22.49
2023-03-27T13:41:41.149Z,22.48
2023-03-27T13:44:26.758Z,22.46
2023-03-27T13:46:56.449Z,22.46
2023-03-27T13:49:23.357Z,22.45
2023-03-27T13:51:58.459Z,22.45
2023-03-27T13:54:28.228Z,22.43
2023-03-27T13:57:13.682Z,22.44
2023-03-27T13:59:55.698Z,22.43
2023-03-27T14:02:40.966Z,22.43
2023-03-27T14:05:10.607Z,22.40
2023-03-27T14:07:41.685Z,22.41
2023-03-27T14:10:31.577Z,22.41
2023-03-27T14:13:01.443Z,22.39
2023-03-27T14:15:30.869Z,22.39
2023-03-27T14:18:05.981Z,22.38
2023-03-27T14:20:45.811Z,22.36
2023-03-27T14:23:24.041Z,22.33
2023-03-27T14:25:55.059Z,22.34
2023-03-27T14:28:34.968Z,22.31
2023-03-27T14:31:06.266Z,22.26
2023-03-27T14:33:34.231Z,22.27
2023-03-27T14:36:18.366Z,22.29
2023-03-27T14:38:45.174Z,22.29
2023-03-27T14:41:22.529Z,22.22
2023-03-27T14:43:49.565Z,22.13
2023-03-27T14:46:27.460Z,22.15
2023-03-27T14:48:57.340Z,22.14
2023-03-27T14:51:35.156Z,22.13
2023-03-27T14:54:07.382Z,22.10
2023-03-27T14:56:41.932Z,22.06
2023-03-27T14:59:13.982Z,22.09
2023-03-27T15:01:42.428Z,22.09
2023-03-27T15:04:11.541Z,22.02
2023-03-27T15:06:38.722Z,22.02
2023-03-27T15:09:13.086Z,21.99
2023-03-27T15:11:41.384Z,21.99
2023-03-27T15:14:19.047Z,21.98
2023-03-27T15:17:10.822Z,21.98
2023-03-27T15:19:49.211Z,21.93
2023-03-27T15:22:23.435Z,21.92
2023-03-27T15:24:57.393Z,21.88
2023-03-27T15:27:44.318Z,21.86
2023-03-27T15:30:29.258Z,21.83
2023-03-27T15:32:57.453Z,21.84
2023-03-27T15:35:24.274Z,21.80
2023-03-27T15:37:51.289Z,21.80
2023-03-27T15:40:26.960Z,21.80
2023-03-27T15:43:00.842Z,21.77
2023-03-27T15:45:42.992Z,21.70
2023-03-27T15:48:20.191Z,21.74
2023-03-27T15:50:57.009Z,21.72
2023-03-27T15:53:42.857Z,21.71
2023-03-27T15:56:19.748Z,21.70
2023-03-27T15:58:48.312Z,21.70
2023-03-27T16:01:23.396Z,21.67
2023-03-27T16:03:51.713Z,21.62
2023-03-27T16:06:28.765Z,21.57
2023-03-27T16:08:55.850Z,21.52
2023-03-27T16:11:40.777Z,21.54
2023-03-27T16:14:28.346Z,21.55
2023-03-27T16:17:17.255Z,21.55
2023-03-27T16:19:56.603Z,21.54
2023-03-27T16:22:24.592Z,21.50
2023-03-27T16:24:51.773Z,21.47
2023-03-27T16:27:23.092Z,21.41
2023-03-27T16:29:51.297Z,21.38
2023-03-27T16:32:19.075Z,21.36
2023-03-27T16:34:47.976Z,21.34
2023-03-27T16:37:15.681Z,21.30
2023-03-27T16:39:42.897Z,21.25
2023-03-27T16:42:14.392Z,21.24
2023-03-27T16:44:41.510Z,21.23
2023-03-27T16:47:08.292Z,21.22
2023-03-27T16:49:35.171Z,21.20
2023-03-27T16:52:01.995Z,21.20
2023-03-27T16:54:28.747Z,21.17
2023-03-27T16:56:56.624Z,21.14
2023-03-27T16:59:23.553Z,21.15
2023-03-27T17:01:50.735Z,21.12
2023-03-27T17:04:17.691Z,21.10
2023-03-27T17:06:44.596Z,21.08
2023-03-27T17:09:12.844Z,21.06
2023-03-27T17:11:39.660Z,21.03
2023-03-27T17:14:06.520Z,21.03
2023-03-27T17:16:33.559Z,21.00
2023-03-27T17:19:00.555Z,20.95
2023-03-27T17:21:27.762Z,20.93
2023-03-27T17:23:54.617Z,20.89
2023-03-27T17:26:24.798Z,20.88
2023-03-27T17:28:51.710Z,20.88
2023-03-27T17:31:18.506Z,20.85
2023-03-27T17:33:45.642Z,20.86
2023-03-27T17:36:36.767Z,20.80
2023-03-27T17:39:08.205Z,20.78
2023-03-27T17:41:35.079Z,20.78
2023-03-27T17:44:02.146Z,20.73
2023-03-27T17:46:28.975Z,20.70
2023-03-27T17:48:57.478Z,20.70
2023-03-27T17:51:24.238Z,20.70
2023-03-27T17:53:51.028Z,20.70
2023-03-27T17:56:17.958Z,20.68
2023-03-27T17:58:48.941Z,20.67
2023-03-27T18:01:19.618Z,20.64
2023-03-27T18:03:46.782Z,20.58
2023-03-27T18:06:18.157Z,20.59
2023-03-27T18:08:45.461Z,20.59
2023-03-27T18:11:12.898Z,20.54
2023-03-27T18:13:40.315Z,20.50
2023-03-27T18:16:14.949Z,20.45
2023-03-27T18:18:42.320Z,20.45
2023-03-27T18:21:09.299Z,20.51
2023-03-27T18:23:38.140Z,20.48
2023-03-27T18:26:13.565Z,20.49
2023-03-27T18:28:40.909Z,20.55
2023-03-27T18:31:09.416Z,20.61
2023-03-27T18:33:36.817Z,20.66
2023-03-27T18:36:08.079Z,20.70
2023-03-27T18:38:35.725Z,20.75
2023-03-27T18:41:02.741Z,20.79
2023-03-27T18:43:30.357Z,20.85
2023-03-27T18:45:58.909Z,20.90
2023-03-27T18:48:26.716Z,20.97
2023-03-27T18:50:56.952Z,21.01
2023-03-27T18:53:24.285Z,21.06
2023-03-27T18:55:52.303Z,21.12
2023-03-27T18:58:20.478Z,21.16
2023-03-27T19:00:47.460Z,21.20
2023-03-27T19:03:15.947Z,21.23
2023-03-27T19:05:42.876Z,21.29
2023-03-27T19:08:09.859Z,21.33
2023-03-27T19:10:39.530Z,21.38
2023-03-27T19:13:06.593Z,21.42
2023-03-27T19:15:36.341Z,21.46
2023-03-27T19:18:06.553Z,21.49
2023-03-27T19:20:33.628Z,21.52
2023-03-27T19:23:00.738Z,21.56
2023-03-27T19:25:28.003Z,21.60
2023-03-27T19:27:55.156Z,21.64
2023-03-27T19:30:22.338Z,21.67
2023-03-27T19:32:52.038Z,21.71
2023-03-27T19:35:20.381Z,21.73
2023-03-27T19:37:47.852Z,21.77
2023-03-27T19:40:15.668Z,21.81
2023-03-27T19:42:42.652Z,21.84
2023-03-27T19:45:09.833Z,21.87
2023-03-27T19:47:37.133Z,21.89
2023-03-27T19:50:05.127Z,21.91
2023-03-27T19:52:32.131Z,21.92
2023-03-27T19:54:59.027Z,21.93
2023-03-27T19:57:25.858Z,21.95
2023-03-27T19:59:52.813Z,21.96
2023-03-27T20:02:19.901Z,21.96
2023-03-27T20:04:47.055Z,21.97
2023-03-27T20:07:13.981Z,21.96
2023-03-27T20:09:41.032Z,21.95
2023-03-27T20:12:08.249Z,21.94
2023-03-27T20:14:35.372Z,21.95
2023-03-27T20:17:02.418Z,21.93
2023-03-27T20:19:31.539Z,21.93
2023-03-27T20:21:58.637Z,21.92
2023-03-27T20:24:29.196Z,21.90
2023-03-27T20:26:57.614Z,21.89
2023-03-27T20:29:25.359Z,21.87
2023-03-27T20:31:52.499Z,21.86
2023-03-27T20:34:23.018Z,21.85
2023-03-27T20:36:53.696Z,21.84
2023-03-27T20:39:21.193Z,21.82
2023-03-27T20:41:50.312Z,21.81
2023-03-27T20:44:17.518Z,21.76
2023-03-27T20:46:48.625Z,21.74
2023-03-27T20:51:53.846Z,21.70
2023-03-27T20:54:20.970Z,21.67
2023-03-27T20:56:48.332Z,21.67
2023-03-27T20:59:15.369Z,21.67
2023-03-27T21:01:45.488Z,21.67
2023-03-27T21:04:13.300Z,21.70
2023-03-27T21:06:41.136Z,21.74
2023-03-27T21:09:08.444Z,21.79
2023-03-27T21:11:35.844Z,21.82
2023-03-27T21:14:03.355Z,21.85
2023-03-27T21:16:30.400Z,21.88
2023-03-27T21:18:57.507Z,21.93
2023-03-27T21:21:24.597Z,21.95
2023-03-27T21:23:54.221Z,21.97
2023-03-27T21:26:21.432Z,22.00
2023-03-27T21:28:51.435Z,22.03
2023-03-27T21:31:18.374Z,22.07
2023-03-27T21:33:45.652Z,22.09
2023-03-27T21:36:13.525Z,22.11
2023-03-27T21:38:40.688Z,22.15
2023-03-27T21:41:07.903Z,22.17
2023-03-27T21:43:34.935Z,22.21
2023-03-27T21:46:03.977Z,22.22
2023-03-27T21:48:31.471Z,22.24
2023-03-27T21:50:59.133Z,22.27
2023-03-27T21:53:25.997Z,22.29
2023-03-27T21:55:53.040Z,22.30
2023-03-27T21:58:20.099Z,22.31
2023-03-27T22:00:49.745Z,22.31
2023-03-27T22:03:16.771Z,22.34
2023-03-27T22:05:45.921Z,22.33
2023-03-27T22:08:17.607Z,22.33
2023-03-27T22:10:44.522Z,22.33
2023-03-27T22:13:13.789Z,22.33
2023-03-27T22:15:44.017Z,22.32
2023-03-27T22:18:13.958Z,22.32
2023-03-27T22:20:41.160Z,22.32
2023-03-27T22:23:08.026Z,22.33
2023-03-27T22:25:37.157Z,22.32
2023-03-27T22:28:04.894Z,22.31
2023-03-27T22:30:32.143Z,22.31
2023-03-27T22:32:59.325Z,22.29
2023-03-27T22:35:26.866Z,22.27
2023-03-27T22:37:53.649Z,22.26
2023-03-27T22:40:20.672Z,22.26
2023-03-27T22:42:47.364Z,22.22
2023-03-27T22:45:14.154Z,22.22
2023-03-27T22:47:41.035Z,22.23
2023-03-27T22:50:08.981Z,22.21
2023-03-27T22:52:35.863Z,22.19
2023-03-27T22:55:02.871Z,22.17
2023-03-27T22:57:29.780Z,22.15
2023-03-27T22:59:56.791Z,22.13
2023-03-27T23:02:23.783Z,22.12
2023-03-27T23:04:50.822Z,22.11
2023-03-27T23:07:17.571Z,22.10
2023-03-27T23:09:44.461Z,22.07
2023-03-27T23:12:11.493Z,22.07
2023-03-27T23:14:39.413Z,22.05
2023-03-27T23:17:06.403Z,22.03
2023-03-27T23:19:33.173Z,22.05
2023-03-27T23:22:00.093Z,22.02
2023-03-27T23:24:26.853Z,22.01
2023-03-27T23:26:53.544Z,22.00
2023-03-27T23:29:20.656Z,21.96
2023-03-27T23:31:47.489Z,21.94
2023-03-27T23:34:14.456Z,21.94
2023-03-27T23:36:41.482Z,21.89
2023-03-27T23:39:08.240Z,21.87
2023-03-27T23:41:35.039Z,21.85
2023-03-27T23:44:01.835Z,21.86
2023-03-27T23:46:28.688Z,21.83
2023-03-27T23:48:55.603Z,21.78
2023-03-27T23:51:22.353Z,21.76
2023-03-27T23:53:49.123Z,21.74
2023-03-27T23:56:18.419Z,21.74
2023-03-27T23:58:45.153Z,21.69
